sensor_id;sensor_type;location;lat;lon;timestamp;P1;durP1;ratioP1;P2;durP2;ratioP2
57697;SDS011;43531;52.152;6.366;2022-09-09T00:00:14;1.70;;;1.60;;
57697;SDS011;43531;52.152;6.366;2022-09-09T00:00:47;2.50;;;1.40;;
57697;SDS011;43531;52.152;6.366;2022-09-09T00:01:28;3.35;;;1.75;;
57697;SDS011;43531;52.152;6.366;2022-09-09T00:02:10;2.80;;;1.73;;
57697;SDS011;43531;52.152;6.366;2022-09-09T00:03:27;2.08;;;1.40;;
57697;SDS011;43531;52.152;6.366;2022-09-09T00:04:00;6.80;;;1.67;;
57697;SDS011;43531;52.152;6.366;2022-09-09T00:04:36;2.45;;;1.63;;
57697;SDS011;43531;52.152;6.366;2022-09-09T00:05:18;6.55;;;1.95;;
57697;SDS011;43531;52.152;6.366;2022-09-09T00:06:04;4.53;;;1.58;;
57697;SDS011;43531;52.152;6.366;2022-09-09T00:06:45;3.05;;;1.70;;
57697;SDS011;43531;52.152;6.366;2022-09-09T00:07:46;3.47;;;1.58;;
57697;SDS011;43531;52.152;6.366;2022-09-09T00:08:21;4.75;;;1.92;;
57697;SDS011;43531;52.152;6.366;2022-09-09T00:09:47;2.63;;;1.52;;
57697;SDS011;43531;52.152;6.366;2022-09-09T00:11:05;2.28;;;1.27;;
57697;SDS011;43531;52.152;6.366;2022-09-09T00:13:48;4.32;;;1.65;;
57697;SDS011;43531;52.152;6.366;2022-09-09T00:14:26;1.67;;;1.58;;
57697;SDS011;43531;52.152;6.366;2022-09-09T00:15:34;1.80;;;1.40;;
57697;SDS011;43531;52.152;6.366;2022-09-09T00:16:28;2.15;;;1.83;;
57697;SDS011;43531;52.152;6.366;2022-09-09T00:17:08;3.83;;;1.70;;
57697;SDS011;43531;52.152;6.366;2022-09-09T00:19:22;3.85;;;2.25;;
57697;SDS011;43531;52.152;6.366;2022-09-09T00:20:01;2.50;;;1.50;;
57697;SDS011;43531;52.152;6.366;2022-09-09T00:21:17;3.17;;;1.60;;
57697;SDS011;43531;52.152;6.366;2022-09-09T00:21:55;2.63;;;1.63;;
57697;SDS011;43531;52.152;6.366;2022-09-09T00:22:32;2.13;;;1.80;;
57697;SDS011;43531;52.152;6.366;2022-09-09T00:24:00;3.10;;;1.40;;
57697;SDS011;43531;52.152;6.366;2022-09-09T00:24:43;4.25;;;2.17;;
57697;SDS011;43531;52.152;6.366;2022-09-09T00:26:56;2.38;;;1.58;;
57697;SDS011;43531;52.152;6.366;2022-09-09T00:27:08;7.72;;;1.98;;
57697;SDS011;43531;52.152;6.366;2022-09-09T00:27:47;4.18;;;1.60;;
57697;SDS011;43531;52.152;6.366;2022-09-09T00:28:22;2.67;;;2.42;;
57697;SDS011;43531;52.152;6.366;2022-09-09T00:29:44;6.25;;;1.63;;
57697;SDS011;43531;52.152;6.366;2022-09-09T00:30:25;4.80;;;2.00;;
57697;SDS011;43531;52.152;6.366;2022-09-09T00:31:13;1.95;;;1.75;;
57697;SDS011;43531;52.152;6.366;2022-09-09T00:31:47;4.50;;;2.58;;
57697;SDS011;43531;52.152;6.366;2022-09-09T00:32:19;2.35;;;1.95;;
57697;SDS011;43531;52.152;6.366;2022-09-09T00:32:55;2.20;;;2.00;;
57697;SDS011;43531;52.152;6.366;2022-09-09T00:33:30;1.77;;;1.67;;
57697;SDS011;43531;52.152;6.366;2022-09-09T00:34:05;2.88;;;1.70;;
57697;SDS011;43531;52.152;6.366;2022-09-09T00:34:49;3.28;;;1.90;;
57697;SDS011;43531;52.152;6.366;2022-09-09T00:35:22;3.60;;;1.85;;
57697;SDS011;43531;52.152;6.366;2022-09-09T00:35:57;19.02;;;2.20;;
57697;SDS011;43531;52.152;6.366;2022-09-09T00:36:29;9.75;;;2.20;;
57697;SDS011;43531;52.152;6.366;2022-09-09T00:37:02;3.88;;;2.00;;
57697;SDS011;43531;52.152;6.366;2022-09-09T00:37:34;12.10;;;2.20;;
57697;SDS011;43531;52.152;6.366;2022-09-09T00:38:10;2.88;;;1.65;;
57697;SDS011;43531;52.152;6.366;2022-09-09T00:38:59;1.48;;;1.38;;
57697;SDS011;43531;52.152;6.366;2022-09-09T00:39:33;2.65;;;1.77;;
57697;SDS011;43531;52.152;6.366;2022-09-09T00:40:22;4.50;;;4.13;;
57697;SDS011;43531;52.152;6.366;2022-09-09T00:41:01;2.67;;;1.88;;
57697;SDS011;43531;52.152;6.366;2022-09-09T00:42:42;2.03;;;1.85;;
57697;SDS011;43531;52.152;6.366;2022-09-09T00:44:15;2.22;;;1.65;;
57697;SDS011;43531;52.152;6.366;2022-09-09T00:47:59;7.13;;;1.80;;
57697;SDS011;43531;52.152;6.366;2022-09-09T00:48:35;1.95;;;1.70;;
57697;SDS011;43531;52.152;6.366;2022-09-09T00:49:19;1.60;;;1.50;;
57697;SDS011;43531;52.152;6.366;2022-09-09T00:50:05;2.85;;;2.05;;
57697;SDS011;43531;52.152;6.366;2022-09-09T00:50:48;4.00;;;1.92;;
57697;SDS011;43531;52.152;6.366;2022-09-09T00:51:39;2.95;;;1.45;;
57697;SDS011;43531;52.152;6.366;2022-09-09T00:55:54;5.50;;;1.88;;
57697;SDS011;43531;52.152;6.366;2022-09-09T00:56:35;3.58;;;1.65;;
57697;SDS011;43531;52.152;6.366;2022-09-09T00:57:29;2.20;;;1.67;;
57697;SDS011;43531;52.152;6.366;2022-09-09T00:58:02;3.35;;;1.98;;
57697;SDS011;43531;52.152;6.366;2022-09-09T00:58:34;7.28;;;2.33;;
57697;SDS011;43531;52.152;6.366;2022-09-09T01:00:00;3.53;;;2.90;;
57697;SDS011;43531;52.152;6.366;2022-09-09T01:01:24;7.25;;;3.47;;
57697;SDS011;43531;52.152;6.366;2022-09-09T01:01:56;4.38;;;3.03;;
57697;SDS011;43531;52.152;6.366;2022-09-09T01:02:31;4.95;;;3.03;;
57697;SDS011;43531;52.152;6.366;2022-09-09T01:04:02;5.25;;;2.42;;
57697;SDS011;43531;52.152;6.366;2022-09-09T01:04:37;3.60;;;2.92;;
57697;SDS011;43531;52.152;6.366;2022-09-09T01:05:30;3.25;;;2.58;;
57697;SDS011;43531;52.152;6.366;2022-09-09T01:07:07;3.92;;;2.65;;
57697;SDS011;43531;52.152;6.366;2022-09-09T01:07:50;5.32;;;3.00;;
57697;SDS011;43531;52.152;6.366;2022-09-09T01:09:11;4.30;;;2.58;;
57697;SDS011;43531;52.152;6.366;2022-09-09T01:09:59;2.88;;;2.20;;
57697;SDS011;43531;52.152;6.366;2022-09-09T01:10:51;2.13;;;1.92;;
57697;SDS011;43531;52.152;6.366;2022-09-09T01:12:25;4.60;;;2.97;;
57697;SDS011;43531;52.152;6.366;2022-09-09T01:13:12;6.63;;;2.38;;
57697;SDS011;43531;52.152;6.366;2022-09-09T01:15:20;4.05;;;3.65;;
57697;SDS011;43531;52.152;6.366;2022-09-09T01:15:57;3.88;;;2.65;;
57697;SDS011;43531;52.152;6.366;2022-09-09T01:16:34;6.13;;;3.03;;
57697;SDS011;43531;52.152;6.366;2022-09-09T01:17:17;4.63;;;3.60;;
57697;SDS011;43531;52.152;6.366;2022-09-09T01:18:04;3.50;;;3.15;;
57697;SDS011;43531;52.152;6.366;2022-09-09T01:18:43;2.85;;;2.63;;
57697;SDS011;43531;52.152;6.366;2022-09-09T01:19:21;7.50;;;3.03;;
57697;SDS011;43531;52.152;6.366;2022-09-09T01:20:54;11.23;;;3.42;;
57697;SDS011;43531;52.152;6.366;2022-09-09T01:21:39;2.83;;;2.55;;
57697;SDS011;43531;52.152;6.366;2022-09-09T01:24:37;3.47;;;2.65;;
57697;SDS011;43531;52.152;6.366;2022-09-09T01:26:26;3.40;;;3.10;;
57697;SDS011;43531;52.152;6.366;2022-09-09T01:27:14;6.82;;;4.68;;
57697;SDS011;43531;52.152;6.366;2022-09-09T01:27:49;4.22;;;3.33;;
57697;SDS011;43531;52.152;6.366;2022-09-09T01:28:25;4.65;;;2.97;;
57697;SDS011;43531;52.152;6.366;2022-09-09T01:29:08;6.25;;;3.83;;
57697;SDS011;43531;52.152;6.366;2022-09-09T01:30:18;4.72;;;3.83;;
57697;SDS011;43531;52.152;6.366;2022-09-09T01:30:50;3.78;;;3.20;;
57697;SDS011;43531;52.152;6.366;2022-09-09T01:31:29;3.53;;;3.22;;
57697;SDS011;43531;52.152;6.366;2022-09-09T01:33:13;14.43;;;3.22;;
57697;SDS011;43531;52.152;6.366;2022-09-09T01:33:46;4.75;;;3.65;;
57697;SDS011;43531;52.152;6.366;2022-09-09T01:34:18;3.42;;;3.13;;
57697;SDS011;43531;52.152;6.366;2022-09-09T01:34:50;5.18;;;2.97;;
57697;SDS011;43531;52.152;6.366;2022-09-09T01:37:15;7.57;;;3.47;;
57697;SDS011;43531;52.152;6.366;2022-09-09T01:37:47;3.28;;;3.05;;
57697;SDS011;43531;52.152;6.366;2022-09-09T01:38:18;5.28;;;3.05;;
57697;SDS011;43531;52.152;6.366;2022-09-09T01:38:52;4.00;;;3.60;;
57697;SDS011;43531;52.152;6.366;2022-09-09T01:39:24;18.10;;;4.43;;
57697;SDS011;43531;52.152;6.366;2022-09-09T01:40:06;2.92;;;2.72;;
57697;SDS011;43531;52.152;6.366;2022-09-09T01:40:40;6.38;;;3.30;;
57697;SDS011;43531;52.152;6.366;2022-09-09T01:41:11;7.50;;;3.45;;
57697;SDS011;43531;52.152;6.366;2022-09-09T01:41:50;3.70;;;2.72;;
57697;SDS011;43531;52.152;6.366;2022-09-09T01:42:23;12.15;;;2.25;;
57697;SDS011;43531;52.152;6.366;2022-09-09T01:42:55;3.85;;;3.30;;
57697;SDS011;43531;52.152;6.366;2022-09-09T01:43:27;8.98;;;3.67;;
57697;SDS011;43531;52.152;6.366;2022-09-09T01:44:00;3.75;;;3.42;;
57697;SDS011;43531;52.152;6.366;2022-09-09T01:44:34;5.60;;;3.60;;
57697;SDS011;43531;52.152;6.366;2022-09-09T01:45:06;33.30;;;4.82;;
57697;SDS011;43531;52.152;6.366;2022-09-09T01:45:38;5.20;;;3.25;;
57697;SDS011;43531;52.152;6.366;2022-09-09T01:46:11;8.00;;;3.40;;
57697;SDS011;43531;52.152;6.366;2022-09-09T01:46:44;5.22;;;3.42;;
57697;SDS011;43531;52.152;6.366;2022-09-09T01:47:20;3.53;;;3.22;;
57697;SDS011;43531;52.152;6.366;2022-09-09T01:48:06;5.90;;;3.22;;
57697;SDS011;43531;52.152;6.366;2022-09-09T01:48:50;3.58;;;3.10;;
57697;SDS011;43531;52.152;6.366;2022-09-09T01:49:22;4.45;;;3.60;;
57697;SDS011;43531;52.152;6.366;2022-09-09T01:49:54;5.30;;;3.55;;
57697;SDS011;43531;52.152;6.366;2022-09-09T01:50:29;5.00;;;3.80;;
57697;SDS011;43531;52.152;6.366;2022-09-09T01:51:02;4.40;;;4.10;;
57697;SDS011;43531;52.152;6.366;2022-09-09T01:51:34;6.63;;;3.03;;
57697;SDS011;43531;52.152;6.366;2022-09-09T01:52:25;6.07;;;3.15;;
57697;SDS011;43531;52.152;6.366;2022-09-09T01:52:58;6.18;;;3.33;;
57697;SDS011;43531;52.152;6.366;2022-09-09T01:53:33;3.83;;;3.53;;
57697;SDS011;43531;52.152;6.366;2022-09-09T01:54:06;4.20;;;3.72;;
57697;SDS011;43531;52.152;6.366;2022-09-09T01:54:38;4.07;;;3.67;;
57697;SDS011;43531;52.152;6.366;2022-09-09T01:55:15;4.78;;;2.83;;
57697;SDS011;43531;52.152;6.366;2022-09-09T01:56:50;3.25;;;2.95;;
57697;SDS011;43531;52.152;6.366;2022-09-09T01:58:02;7.43;;;3.80;;
57697;SDS011;43531;52.152;6.366;2022-09-09T02:00:13;3.72;;;3.42;;
57697;SDS011;43531;52.152;6.366;2022-09-09T02:00:50;3.17;;;2.97;;
57697;SDS011;43531;52.152;6.366;2022-09-09T02:02:32;4.70;;;3.80;;
57697;SDS011;43531;52.152;6.366;2022-09-09T02:04:03;5.10;;;3.53;;
57697;SDS011;43531;52.152;6.366;2022-09-09T02:04:44;6.57;;;3.72;;
57697;SDS011;43531;52.152;6.366;2022-09-09T02:06:28;3.97;;;3.20;;
57697;SDS011;43531;52.152;6.366;2022-09-09T02:08:07;5.10;;;4.57;;
57697;SDS011;43531;52.152;6.366;2022-09-09T02:08:57;4.45;;;3.78;;
57697;SDS011;43531;52.152;6.366;2022-09-09T02:09:31;5.28;;;3.22;;
57697;SDS011;43531;52.152;6.366;2022-09-09T02:10:11;4.20;;;3.38;;
57697;SDS011;43531;52.152;6.366;2022-09-09T02:10:56;5.65;;;4.10;;
57697;SDS011;43531;52.152;6.366;2022-09-09T02:11:40;11.32;;;3.20;;
57697;SDS011;43531;52.152;6.366;2022-09-09T02:12:23;4.18;;;3.38;;
57697;SDS011;43531;52.152;6.366;2022-09-09T02:13:04;3.65;;;3.33;;
57697;SDS011;43531;52.152;6.366;2022-09-09T02:13:40;3.70;;;3.40;;
57697;SDS011;43531;52.152;6.366;2022-09-09T02:14:21;3.17;;;2.85;;
57697;SDS011;43531;52.152;6.366;2022-09-09T02:14:59;4.32;;;2.55;;
57697;SDS011;43531;52.152;6.366;2022-09-09T02:15:45;5.75;;;3.47;;
57697;SDS011;43531;52.152;6.366;2022-09-09T02:16:22;7.03;;;3.40;;
57697;SDS011;43531;52.152;6.366;2022-09-09T02:16:58;6.38;;;4.18;;
57697;SDS011;43531;52.152;6.366;2022-09-09T02:17:43;4.18;;;3.13;;
57697;SDS011;43531;52.152;6.366;2022-09-09T02:18:21;4.05;;;3.58;;
57697;SDS011;43531;52.152;6.366;2022-09-09T02:19:55;4.47;;;2.80;;
57697;SDS011;43531;52.152;6.366;2022-09-09T02:20:43;4.60;;;3.30;;
57697;SDS011;43531;52.152;6.366;2022-09-09T02:21:16;4.63;;;2.95;;
57697;SDS011;43531;52.152;6.366;2022-09-09T02:21:48;7.10;;;3.15;;
57697;SDS011;43531;52.152;6.366;2022-09-09T02:22:21;8.68;;;3.50;;
57697;SDS011;43531;52.152;6.366;2022-09-09T02:22:54;3.47;;;3.17;;
57697;SDS011;43531;52.152;6.366;2022-09-09T02:23:28;5.10;;;3.17;;
57697;SDS011;43531;52.152;6.366;2022-09-09T02:24:02;3.83;;;3.42;;
57697;SDS011;43531;52.152;6.366;2022-09-09T02:24:39;4.40;;;3.33;;
57697;SDS011;43531;52.152;6.366;2022-09-09T02:25:18;4.30;;;3.47;;
57697;SDS011;43531;52.152;6.366;2022-09-09T02:25:52;4.78;;;3.42;;
57697;SDS011;43531;52.152;6.366;2022-09-09T02:26:27;4.15;;;3.42;;
57697;SDS011;43531;52.152;6.366;2022-09-09T02:27:05;9.50;;;4.82;;
57697;SDS011;43531;52.152;6.366;2022-09-09T02:27:41;4.35;;;3.95;;
57697;SDS011;43531;52.152;6.366;2022-09-09T02:28:14;4.15;;;3.75;;
57697;SDS011;43531;52.152;6.366;2022-09-09T02:28:48;8.70;;;4.28;;
57697;SDS011;43531;52.152;6.366;2022-09-09T02:29:26;7.60;;;3.88;;
57697;SDS011;43531;52.152;6.366;2022-09-09T02:30:00;3.55;;;3.08;;
57697;SDS011;43531;52.152;6.366;2022-09-09T02:30:48;4.30;;;3.88;;
57697;SDS011;43531;52.152;6.366;2022-09-09T02:31:31;7.15;;;3.65;;
57697;SDS011;43531;52.152;6.366;2022-09-09T02:32:14;7.38;;;4.45;;
57697;SDS011;43531;52.152;6.366;2022-09-09T02:32:48;8.45;;;3.55;;
57697;SDS011;43531;52.152;6.366;2022-09-09T02:33:25;5.50;;;3.75;;
57697;SDS011;43531;52.152;6.366;2022-09-09T02:34:00;8.55;;;3.78;;
57697;SDS011;43531;52.152;6.366;2022-09-09T02:34:34;4.78;;;4.07;;
57697;SDS011;43531;52.152;6.366;2022-09-09T02:35:15;7.88;;;3.53;;
57697;SDS011;43531;52.152;6.366;2022-09-09T02:35:50;4.00;;;3.60;;
57697;SDS011;43531;52.152;6.366;2022-09-09T02:36:25;3.67;;;3.35;;
57697;SDS011;43531;52.152;6.366;2022-09-09T02:37:00;5.32;;;3.88;;
57697;SDS011;43531;52.152;6.366;2022-09-09T02:37:34;7.18;;;4.15;;
57697;SDS011;43531;52.152;6.366;2022-09-09T02:38:09;5.38;;;3.67;;
57697;SDS011;43531;52.152;6.366;2022-09-09T02:38:46;5.35;;;4.18;;
57697;SDS011;43531;52.152;6.366;2022-09-09T02:39:27;4.20;;;3.80;;
57697;SDS011;43531;52.152;6.366;2022-09-09T02:39:59;4.20;;;3.80;;
57697;SDS011;43531;52.152;6.366;2022-09-09T02:40:30;3.75;;;3.45;;
57697;SDS011;43531;52.152;6.366;2022-09-09T02:41:06;4.47;;;3.65;;
57697;SDS011;43531;52.152;6.366;2022-09-09T02:41:39;4.60;;;3.72;;
57697;SDS011;43531;52.152;6.366;2022-09-09T02:42:12;4.65;;;4.13;;
57697;SDS011;43531;52.152;6.366;2022-09-09T02:42:47;6.00;;;4.07;;
57697;SDS011;43531;52.152;6.366;2022-09-09T02:43:22;12.35;;;4.38;;
57697;SDS011;43531;52.152;6.366;2022-09-09T02:43:54;5.32;;;3.95;;
57697;SDS011;43531;52.152;6.366;2022-09-09T02:44:27;3.90;;;3.45;;
57697;SDS011;43531;52.152;6.366;2022-09-09T02:45:01;5.63;;;4.05;;
57697;SDS011;43531;52.152;6.366;2022-09-09T02:45:38;5.85;;;3.47;;
57697;SDS011;43531;52.152;6.366;2022-09-09T02:46:22;4.28;;;3.45;;
57697;SDS011;43531;52.152;6.366;2022-09-09T02:47:18;4.07;;;3.78;;
57697;SDS011;43531;52.152;6.366;2022-09-09T02:48:52;8.15;;;4.13;;
57697;SDS011;43531;52.152;6.366;2022-09-09T02:50:47;7.88;;;4.13;;
57697;SDS011;43531;52.152;6.366;2022-09-09T02:54:41;3.63;;;3.28;;
57697;SDS011;43531;52.152;6.366;2022-09-09T02:55:30;3.90;;;3.53;;
57697;SDS011;43531;52.152;6.366;2022-09-09T02:56:13;7.18;;;4.10;;
57697;SDS011;43531;52.152;6.366;2022-09-09T02:56:51;6.97;;;4.03;;
57697;SDS011;43531;52.152;6.366;2022-09-09T02:57:31;5.80;;;4.00;;
57697;SDS011;43531;52.152;6.366;2022-09-09T02:58:04;5.40;;;3.88;;
57697;SDS011;43531;52.152;6.366;2022-09-09T02:58:39;5.78;;;4.45;;
57697;SDS011;43531;52.152;6.366;2022-09-09T02:59:11;4.57;;;4.18;;
57697;SDS011;43531;52.152;6.366;2022-09-09T02:59:43;7.05;;;3.50;;
57697;SDS011;43531;52.152;6.366;2022-09-09T03:00:15;4.35;;;3.95;;
57697;SDS011;43531;52.152;6.366;2022-09-09T03:00:49;5.25;;;4.28;;
57697;SDS011;43531;52.152;6.366;2022-09-09T03:01:23;7.25;;;4.05;;
57697;SDS011;43531;52.152;6.366;2022-09-09T03:01:54;5.90;;;4.55;;
57697;SDS011;43531;52.152;6.366;2022-09-09T03:02:27;6.97;;;3.58;;
57697;SDS011;43531;52.152;6.366;2022-09-09T03:03:05;6.85;;;3.50;;
57697;SDS011;43531;52.152;6.366;2022-09-09T03:03:38;6.95;;;4.20;;
57697;SDS011;43531;52.152;6.366;2022-09-09T03:04:14;4.55;;;3.35;;
57697;SDS011;43531;52.152;6.366;2022-09-09T03:04:46;3.97;;;3.58;;
57697;SDS011;43531;52.152;6.366;2022-09-09T03:05:22;8.57;;;4.03;;
57697;SDS011;43531;52.152;6.366;2022-09-09T03:05:55;4.93;;;3.70;;
57697;SDS011;43531;52.152;6.366;2022-09-09T03:06:27;5.68;;;4.57;;
57697;SDS011;43531;52.152;6.366;2022-09-09T03:07:08;5.28;;;4.05;;
57697;SDS011;43531;52.152;6.366;2022-09-09T03:07:41;5.28;;;3.97;;
57697;SDS011;43531;52.152;6.366;2022-09-09T03:08:13;4.38;;;3.30;;
57697;SDS011;43531;52.152;6.366;2022-09-09T03:08:46;4.45;;;4.05;;
57697;SDS011;43531;52.152;6.366;2022-09-09T03:09:21;3.88;;;3.58;;
57697;SDS011;43531;52.152;6.366;2022-09-09T03:09:53;9.40;;;4.30;;
57697;SDS011;43531;52.152;6.366;2022-09-09T03:10:27;5.82;;;4.03;;
57697;SDS011;43531;52.152;6.366;2022-09-09T03:10:59;6.80;;;3.90;;
57697;SDS011;43531;52.152;6.366;2022-09-09T03:11:37;5.13;;;3.50;;
57697;SDS011;43531;52.152;6.366;2022-09-09T03:12:10;3.92;;;3.22;;
57697;SDS011;43531;52.152;6.366;2022-09-09T03:12:43;6.53;;;4.00;;
57697;SDS011;43531;52.152;6.366;2022-09-09T03:13:14;4.22;;;3.83;;
57697;SDS011;43531;52.152;6.366;2022-09-09T03:13:47;8.05;;;4.03;;
57697;SDS011;43531;52.152;6.366;2022-09-09T03:14:20;4.10;;;3.38;;
57697;SDS011;43531;52.152;6.366;2022-09-09T03:14:54;7.60;;;4.03;;
57697;SDS011;43531;52.152;6.366;2022-09-09T03:15:25;3.85;;;3.47;;
57697;SDS011;43531;52.152;6.366;2022-09-09T03:16:00;5.75;;;3.97;;
57697;SDS011;43531;52.152;6.366;2022-09-09T03:16:35;3.58;;;3.20;;
57697;SDS011;43531;52.152;6.366;2022-09-09T03:17:07;4.90;;;3.47;;
57697;SDS011;43531;52.152;6.366;2022-09-09T03:17:46;5.43;;;3.53;;
57697;SDS011;43531;52.152;6.366;2022-09-09T03:18:18;9.23;;;3.60;;
57697;SDS011;43531;52.152;6.366;2022-09-09T03:18:54;8.43;;;3.40;;
57697;SDS011;43531;52.152;6.366;2022-09-09T03:19:26;3.92;;;3.63;;
57697;SDS011;43531;52.152;6.366;2022-09-09T03:19:58;3.92;;;3.60;;
57697;SDS011;43531;52.152;6.366;2022-09-09T03:20:30;3.80;;;3.40;;
57697;SDS011;43531;52.152;6.366;2022-09-09T03:21:02;5.63;;;4.18;;
57697;SDS011;43531;52.152;6.366;2022-09-09T03:21:34;8.25;;;4.03;;
57697;SDS011;43531;52.152;6.366;2022-09-09T03:22:08;5.72;;;3.90;;
57697;SDS011;43531;52.152;6.366;2022-09-09T03:22:43;4.72;;;4.22;;
57697;SDS011;43531;52.152;6.366;2022-09-09T03:23:17;4.88;;;3.92;;
57697;SDS011;43531;52.152;6.366;2022-09-09T03:23:49;5.15;;;3.47;;
57697;SDS011;43531;52.152;6.366;2022-09-09T03:24:21;4.57;;;4.18;;
57697;SDS011;43531;52.152;6.366;2022-09-09T03:24:53;6.53;;;4.30;;
57697;SDS011;43531;52.152;6.366;2022-09-09T03:25:26;5.25;;;4.07;;
57697;SDS011;43531;52.152;6.366;2022-09-09T03:25:59;10.60;;;3.22;;
57697;SDS011;43531;52.152;6.366;2022-09-09T03:26:40;10.18;;;4.18;;
57697;SDS011;43531;52.152;6.366;2022-09-09T03:27:15;3.63;;;3.33;;
57697;SDS011;43531;52.152;6.366;2022-09-09T03:27:46;4.63;;;4.10;;
57697;SDS011;43531;52.152;6.366;2022-09-09T03:28:18;3.97;;;3.67;;
57697;SDS011;43531;52.152;6.366;2022-09-09T03:28:50;4.40;;;4.00;;
57697;SDS011;43531;52.152;6.366;2022-09-09T03:29:25;6.68;;;3.95;;
57697;SDS011;43531;52.152;6.366;2022-09-09T03:30:00;4.13;;;3.72;;
57697;SDS011;43531;52.152;6.366;2022-09-09T03:30:32;4.88;;;3.53;;
57697;SDS011;43531;52.152;6.366;2022-09-09T03:31:05;4.45;;;3.80;;
57697;SDS011;43531;52.152;6.366;2022-09-09T03:31:42;5.15;;;3.65;;
57697;SDS011;43531;52.152;6.366;2022-09-09T03:32:14;6.90;;;3.83;;
57697;SDS011;43531;52.152;6.366;2022-09-09T03:32:48;4.80;;;4.18;;
57697;SDS011;43531;52.152;6.366;2022-09-09T03:33:20;4.88;;;3.88;;
57697;SDS011;43531;52.152;6.366;2022-09-09T03:33:52;4.22;;;3.83;;
57697;SDS011;43531;52.152;6.366;2022-09-09T03:34:25;4.03;;;3.63;;
57697;SDS011;43531;52.152;6.366;2022-09-09T03:34:56;4.68;;;4.25;;
57697;SDS011;43531;52.152;6.366;2022-09-09T03:35:28;6.55;;;3.67;;
57697;SDS011;43531;52.152;6.366;2022-09-09T03:36:01;5.63;;;4.25;;
57697;SDS011;43531;52.152;6.366;2022-09-09T03:36:33;4.40;;;3.60;;
57697;SDS011;43531;52.152;6.366;2022-09-09T03:37:05;5.07;;;4.18;;
57697;SDS011;43531;52.152;6.366;2022-09-09T03:37:37;6.22;;;3.97;;
57697;SDS011;43531;52.152;6.366;2022-09-09T03:38:10;8.18;;;4.82;;
57697;SDS011;43531;52.152;6.366;2022-09-09T03:38:43;4.57;;;4.18;;
57697;SDS011;43531;52.152;6.366;2022-09-09T03:39:16;4.32;;;3.90;;
57697;SDS011;43531;52.152;6.366;2022-09-09T03:39:48;4.80;;;4.38;;
57697;SDS011;43531;52.152;6.366;2022-09-09T03:40:21;4.07;;;3.67;;
57697;SDS011;43531;52.152;6.366;2022-09-09T03:40:54;15.32;;;4.68;;
57697;SDS011;43531;52.152;6.366;2022-09-09T03:41:27;6.63;;;4.18;;
57697;SDS011;43531;52.152;6.366;2022-09-09T03:41:59;4.85;;;4.13;;
57697;SDS011;43531;52.152;6.366;2022-09-09T03:42:35;3.83;;;3.47;;
57697;SDS011;43531;52.152;6.366;2022-09-09T03:43:08;4.10;;;3.78;;
57697;SDS011;43531;52.152;6.366;2022-09-09T03:43:41;5.43;;;4.07;;
57697;SDS011;43531;52.152;6.366;2022-09-09T03:44:13;6.57;;;4.07;;
57697;SDS011;43531;52.152;6.366;2022-09-09T03:44:46;4.13;;;3.70;;
57697;SDS011;43531;52.152;6.366;2022-09-09T03:45:22;5.20;;;3.67;;
57697;SDS011;43531;52.152;6.366;2022-09-09T03:45:54;4.63;;;3.85;;
57697;SDS011;43531;52.152;6.366;2022-09-09T03:46:30;7.05;;;3.75;;
57697;SDS011;43531;52.152;6.366;2022-09-09T03:47:03;5.53;;;3.53;;
57697;SDS011;43531;52.152;6.366;2022-09-09T03:47:35;4.43;;;3.83;;
57697;SDS011;43531;52.152;6.366;2022-09-09T03:48:09;10.35;;;4.00;;
57697;SDS011;43531;52.152;6.366;2022-09-09T03:48:43;5.00;;;4.00;;
57697;SDS011;43531;52.152;6.366;2022-09-09T03:49:15;4.97;;;3.75;;
57697;SDS011;43531;52.152;6.366;2022-09-09T03:49:48;5.45;;;4.95;;
57697;SDS011;43531;52.152;6.366;2022-09-09T03:50:19;5.88;;;4.07;;
57697;SDS011;43531;52.152;6.366;2022-09-09T03:50:52;4.82;;;3.95;;
57697;SDS011;43531;52.152;6.366;2022-09-09T03:51:24;4.03;;;3.53;;
57697;SDS011;43531;52.152;6.366;2022-09-09T03:51:56;4.72;;;4.32;;
57697;SDS011;43531;52.152;6.366;2022-09-09T03:52:28;4.40;;;4.00;;
57697;SDS011;43531;52.152;6.366;2022-09-09T03:53:00;4.60;;;4.20;;
57697;SDS011;43531;52.152;6.366;2022-09-09T03:53:32;5.13;;;4.45;;
57697;SDS011;43531;52.152;6.366;2022-09-09T03:54:06;4.55;;;3.90;;
57697;SDS011;43531;52.152;6.366;2022-09-09T03:54:40;4.90;;;4.43;;
57697;SDS011;43531;52.152;6.366;2022-09-09T03:55:12;6.57;;;4.60;;
57697;SDS011;43531;52.152;6.366;2022-09-09T03:55:47;4.80;;;4.40;;
57697;SDS011;43531;52.152;6.366;2022-09-09T03:56:20;6.50;;;4.00;;
57697;SDS011;43531;52.152;6.366;2022-09-09T03:56:53;5.30;;;4.82;;
57697;SDS011;43531;52.152;6.366;2022-09-09T03:57:26;9.07;;;4.38;;
57697;SDS011;43531;52.152;6.366;2022-09-09T03:57:58;9.80;;;6.07;;
57697;SDS011;43531;52.152;6.366;2022-09-09T03:58:29;5.05;;;4.65;;
57697;SDS011;43531;52.152;6.366;2022-09-09T03:59:06;8.02;;;4.80;;
57697;SDS011;43531;52.152;6.366;2022-09-09T03:59:38;5.30;;;3.67;;
57697;SDS011;43531;52.152;6.366;2022-09-09T04:00:09;4.80;;;4.40;;
57697;SDS011;43531;52.152;6.366;2022-09-09T04:00:57;9.68;;;5.97;;
57697;SDS011;43531;52.152;6.366;2022-09-09T04:01:33;6.53;;;4.60;;
57697;SDS011;43531;52.152;6.366;2022-09-09T04:02:05;5.63;;;4.95;;
57697;SDS011;43531;52.152;6.366;2022-09-09T04:02:37;8.15;;;4.93;;
57697;SDS011;43531;52.152;6.366;2022-09-09T04:03:09;5.43;;;4.20;;
57697;SDS011;43531;52.152;6.366;2022-09-09T04:03:41;6.65;;;4.57;;
57697;SDS011;43531;52.152;6.366;2022-09-09T04:04:13;4.95;;;4.50;;
57697;SDS011;43531;52.152;6.366;2022-09-09T04:04:45;7.28;;;4.07;;
57697;SDS011;43531;52.152;6.366;2022-09-09T04:05:16;6.68;;;5.07;;
57697;SDS011;43531;52.152;6.366;2022-09-09T04:05:51;6.50;;;4.82;;
57697;SDS011;43531;52.152;6.366;2022-09-09T04:06:23;6.13;;;5.00;;
57697;SDS011;43531;52.152;6.366;2022-09-09T04:06:55;5.00;;;4.47;;
57697;SDS011;43531;52.152;6.366;2022-09-09T04:07:27;6.95;;;4.57;;
57697;SDS011;43531;52.152;6.366;2022-09-09T04:08:00;7.13;;;5.05;;
57697;SDS011;43531;52.152;6.366;2022-09-09T04:08:31;5.90;;;5.30;;
57697;SDS011;43531;52.152;6.366;2022-09-09T04:09:04;10.52;;;7.05;;
57697;SDS011;43531;52.152;6.366;2022-09-09T04:09:36;5.78;;;4.78;;
57697;SDS011;43531;52.152;6.366;2022-09-09T04:10:08;7.03;;;4.75;;
57697;SDS011;43531;52.152;6.366;2022-09-09T04:10:42;5.22;;;4.72;;
57697;SDS011;43531;52.152;6.366;2022-09-09T04:11:17;4.65;;;4.05;;
57697;SDS011;43531;52.152;6.366;2022-09-09T04:11:50;5.00;;;4.50;;
57697;SDS011;43531;52.152;6.366;2022-09-09T04:12:23;6.22;;;3.92;;
57697;SDS011;43531;52.152;6.366;2022-09-09T04:12:54;7.13;;;5.22;;
57697;SDS011;43531;52.152;6.366;2022-09-09T04:13:26;5.53;;;4.03;;
57697;SDS011;43531;52.152;6.366;2022-09-09T04:13:59;5.32;;;4.55;;
57697;SDS011;43531;52.152;6.366;2022-09-09T04:14:33;9.15;;;5.07;;
57697;SDS011;43531;52.152;6.366;2022-09-09T04:15:04;7.20;;;5.65;;
57697;SDS011;43531;52.152;6.366;2022-09-09T04:15:38;5.18;;;4.68;;
57697;SDS011;43531;52.152;6.366;2022-09-09T04:16:10;9.95;;;4.75;;
57697;SDS011;43531;52.152;6.366;2022-09-09T04:16:45;9.90;;;5.38;;
57697;SDS011;43531;52.152;6.366;2022-09-09T04:17:16;4.82;;;4.43;;
57697;SDS011;43531;52.152;6.366;2022-09-09T04:17:48;8.52;;;4.53;;
57697;SDS011;43531;52.152;6.366;2022-09-09T04:18:21;6.70;;;4.97;;
57697;SDS011;43531;52.152;6.366;2022-09-09T04:18:53;6.10;;;4.70;;
57697;SDS011;43531;52.152;6.366;2022-09-09T04:19:24;5.40;;;4.82;;
57697;SDS011;43531;52.152;6.366;2022-09-09T04:19:56;4.47;;;4.07;;
57697;SDS011;43531;52.152;6.366;2022-09-09T04:20:28;6.97;;;4.35;;
57697;SDS011;43531;52.152;6.366;2022-09-09T04:21:01;5.53;;;4.90;;
57697;SDS011;43531;52.152;6.366;2022-09-09T04:21:36;4.65;;;4.10;;
57697;SDS011;43531;52.152;6.366;2022-09-09T04:22:07;5.85;;;5.18;;
57697;SDS011;43531;52.152;6.366;2022-09-09T04:22:39;6.30;;;4.82;;
57697;SDS011;43531;52.152;6.366;2022-09-09T04:23:11;10.65;;;4.78;;